»·PEaware :: N800DW KGEG-KMSO

N800DW :: KGEG-KMSO

FLIGHT INFORMATION

Flight Status: Arrived
Operator: Privately registered:
United States
More flights under this callsign
Pilot: Scott L. (17677)
Aircraft: Unknown
(PIPA)
More flights by this aircraft type
Origin: KGEG Spokane Intl
United States
Destination: KMSO Missoula Intl
United States
More flights between these airports :: More routes between these airports
Route: +GEG3 MLP V2 MSO
File this flight plan on PilotEdge
Remarks:
Altitude:
(Current/Filed)
23,000ft
Speed:
(Current/Filed)
300kts
Departed: 23-Jun-18 08:23 AM
Arrived: 23-Jun-18 09:11 AM
Distance/Time
Traveled:
147nm/0:48
Distance/Time
To Go:
Arrived

Flight Plot

Page will automatically refresh every two minutes.

Flight plan parsing failed; only flown route is shown


Map Options




Map Legend


Flown Route
Filed Route
Departure Airport
Arrival Airport
Navaid (VOR, NDB)
Fix

Horizontal Profiles

Position Reports

Time Latitude Longitude Heading Altitude Ground
Speed
23-Jun-18 08:13 47.626160 -117.520132 0 2363ft 0kts
23-Jun-18 08:14 47.626160 -117.520132 0 2363ft 0kts
23-Jun-18 08:15 47.626160 -117.520132 0 2363ft 0kts
23-Jun-18 08:16 47.626160 -117.520132 0 2363ft 0kts
23-Jun-18 08:17 47.626160 -117.520132 0 2363ft 0kts
23-Jun-18 08:18 47.626160 -117.520132 0 2363ft 0kts
23-Jun-18 08:19 47.626160 -117.520132 0 2363ft 0kts
23-Jun-18 08:20 47.626495 -117.520161 354 2363ft 9kts
23-Jun-18 08:21 47.630420 -117.517382 313 2363ft 8kts
23-Jun-18 08:22 47.630450 -117.517430 312 2363ft 2kts
23-Jun-18 08:23 47.615546 -117.540069 219 2539ft 195kts
23-Jun-18 08:24 47.574339 -117.591799 219 6166ft 198kts
23-Jun-18 08:25 47.533905 -117.577655 84 9391ft 229kts
23-Jun-18 08:26 47.553794 -117.488770 79 12646ft 235kts
23-Jun-18 08:27 47.555545 -117.389564 88 15173ft 250kts
23-Jun-18 08:28 47.551494 -117.284871 90 17352ft 260kts
23-Jun-18 08:29 47.546153 -117.176355 90 19200ft 269kts
23-Jun-18 08:30 47.540366 -117.064528 90 20820ft 275kts
23-Jun-18 08:31 47.534389 -116.951702 90 22267ft 277kts
23-Jun-18 08:32 47.528176 -116.836353 90 23065ft 293kts
23-Jun-18 08:33 47.521258 -116.711083 91 23066ft 315kts
23-Jun-18 08:34 47.513881 -116.580271 91 23067ft 323kts
23-Jun-18 08:35 47.506275 -116.447591 91 23065ft 326kts
23-Jun-18 08:36 47.498644 -116.317313 91 23063ft 327kts
23-Jun-18 08:37 47.490675 -116.183943 91 23059ft 322kts
23-Jun-18 08:38 47.482717 -116.053247 91 23062ft 317kts
23-Jun-18 08:39 47.474711 -115.924014 91 23063ft 316kts
23-Jun-18 08:40 47.466533 -115.794623 91 23066ft 316kts
23-Jun-18 08:41 47.457816 -115.664487 98 22672ft 328kts
23-Jun-18 08:42 47.419877 -115.538633 113 22072ft 339kts
23-Jun-18 08:43 47.377324 -115.413570 114 21212ft 350kts
23-Jun-18 08:44 47.333479 -115.286354 115 19770ft 363kts
23-Jun-18 08:45 47.287641 -115.154157 115 18283ft 352kts
23-Jun-18 08:46 47.244668 -115.030798 116 16686ft 332kts
23-Jun-18 08:47 47.202699 -114.910818 116 14698ft 329kts
23-Jun-18 08:48 47.162846 -114.797502 117 12695ft 299kts
23-Jun-18 08:49 47.126213 -114.693760 117 10692ft 280kts
23-Jun-18 08:50 47.092477 -114.598466 116 9998ft 246kts
23-Jun-18 08:51 47.061487 -114.511198 117 10000ft 237kts
23-Jun-18 08:52 47.031214 -114.426309 117 9998ft 233kts
23-Jun-18 08:53 47.001995 -114.344595 117 9999ft 233kts
23-Jun-18 08:54 46.971998 -114.261065 117 10000ft 233kts
23-Jun-18 08:55 46.941752 -114.177059 117 10000ft 234kts
23-Jun-18 08:56 46.911191 -114.092505 118 10001ft 235kts
23-Jun-18 08:57 46.875835 -114.013037 123 9418ft 256kts
23-Jun-18 08:58 46.836243 -113.925744 123 8995ft 247kts
23-Jun-18 08:59 46.782138 -113.902765 190 8855ft 206kts
23-Jun-18 09:00 46.725100 -113.916824 195 8800ft 210kts
23-Jun-18 09:01 46.667848 -113.935067 196 8799ft 209kts
23-Jun-18 09:02 46.629482 -113.978293 292 8306ft 200kts
23-Jun-18 09:03 46.671753 -114.032013 315 6738ft 202kts
23-Jun-18 09:04 46.704840 -114.078877 320 6594ft 154kts
23-Jun-18 09:05 46.755735 -114.074168 5 6031ft 216kts
23-Jun-18 09:06 46.802164 -114.047802 29 5598ft 154kts
23-Jun-18 09:07 46.831475 -114.022780 354 5140ft 107kts
23-Jun-18 09:08 46.867621 -114.027434 350 4059ft 95kts
23-Jun-18 09:09 46.890062 -114.047942 312 3736ft 119kts
23-Jun-18 09:10 46.906515 -114.075533 311 3290ft 91kts
23-Jun-18 09:11 46.917565 -114.093973 327 3199ft 18kts
23-Jun-18 09:12 46.918381 -114.093692 35 3199ft 0kts
23-Jun-18 09:13 46.920074 -114.089109 131 3199ft 19kts
23-Jun-18 09:14 46.915697 -114.081581 130 3199ft 26kts
23-Jun-18 09:15 46.914679 -114.080659 265 3199ft 0kts
23-Jun-18 09:16 46.914679 -114.080659 265 3199ft 0kts
23-Jun-18 09:17 46.914679 -114.080659 265 3199ft 0kts
23-Jun-18 09:18 46.914679 -114.080659 265 3199ft 0kts
23-Jun-18 09:19 46.914679 -114.080659 265 3199ft 0kts
23-Jun-18 09:20 46.914679 -114.080659 265 3199ft 0kts
23-Jun-18 09:21 46.914679 -114.080659 265 3199ft 0kts
23-Jun-18 09:22 46.914679 -114.080659 265 3199ft 0kts
23-Jun-18 09:23 46.914679 -114.080659 265 3199ft 0kts
23-Jun-18 09:24 46.914679 -114.080659 265 3199ft 0kts
23-Jun-18 09:25 46.914679 -114.080659 265 3199ft 0kts

Navigation Log

Ident Type
Flight plan parsing failed, navigation log unavailable